sensor_id;sensor_type;location;lat;lon;timestamp;P1;durP1;ratioP1;P2;durP2;ratioP2
47784;SDS011;35233;55.686;37.848;2023-06-19T00:00:15;4.25;;;3.10;;
47784;SDS011;35233;55.686;37.848;2023-06-19T00:02:41;5.30;;;3.30;;
47784;SDS011;35233;55.686;37.848;2023-06-19T00:05:08;3.90;;;3.00;;
47784;SDS011;35233;55.686;37.848;2023-06-19T00:07:38;3.63;;;2.80;;
47784;SDS011;35233;55.686;37.848;2023-06-19T00:10:04;5.10;;;3.20;;
47784;SDS011;35233;55.686;37.848;2023-06-19T00:12:30;9.68;;;3.22;;
47784;SDS011;35233;55.686;37.848;2023-06-19T00:14:55;4.25;;;3.20;;
47784;SDS011;35233;55.686;37.848;2023-06-19T00:17:21;4.28;;;3.20;;
47784;SDS011;35233;55.686;37.848;2023-06-19T00:19:46;4.10;;;3.13;;
47784;SDS011;35233;55.686;37.848;2023-06-19T00:22:13;5.38;;;3.17;;
47784;SDS011;35233;55.686;37.848;2023-06-19T00:24:40;4.63;;;3.17;;
47784;SDS011;35233;55.686;37.848;2023-06-19T00:27:05;4.03;;;2.92;;
47784;SDS011;35233;55.686;37.848;2023-06-19T00:29:31;4.10;;;3.17;;
47784;SDS011;35233;55.686;37.848;2023-06-19T00:31:58;5.05;;;3.28;;
47784;SDS011;35233;55.686;37.848;2023-06-19T00:34:24;4.47;;;2.80;;
47784;SDS011;35233;55.686;37.848;2023-06-19T00:36:50;4.85;;;2.90;;
47784;SDS011;35233;55.686;37.848;2023-06-19T00:39:24;4.45;;;3.05;;
47784;SDS011;35233;55.686;37.848;2023-06-19T00:41:51;3.95;;;2.88;;
47784;SDS011;35233;55.686;37.848;2023-06-19T00:44:17;4.20;;;2.90;;
47784;SDS011;35233;55.686;37.848;2023-06-19T00:46:42;3.97;;;3.05;;
47784;SDS011;35233;55.686;37.848;2023-06-19T00:49:08;4.00;;;2.92;;
47784;SDS011;35233;55.686;37.848;2023-06-19T00:51:34;3.55;;;2.60;;
47784;SDS011;35233;55.686;37.848;2023-06-19T00:54:00;3.63;;;2.72;;
47784;SDS011;35233;55.686;37.848;2023-06-19T00:56:29;3.80;;;2.80;;
47784;SDS011;35233;55.686;37.848;2023-06-19T00:58:54;4.10;;;2.97;;
47784;SDS011;35233;55.686;37.848;2023-06-19T01:01:20;3.38;;;2.75;;
47784;SDS011;35233;55.686;37.848;2023-06-19T01:03:48;4.30;;;2.80;;
47784;SDS011;35233;55.686;37.848;2023-06-19T01:06:17;4.80;;;3.00;;
47784;SDS011;35233;55.686;37.848;2023-06-19T01:09:01;3.20;;;2.60;;
47784;SDS011;35233;55.686;37.848;2023-06-19T01:11:35;4.40;;;2.83;;
47784;SDS011;35233;55.686;37.848;2023-06-19T01:14:50;3.35;;;2.58;;
47784;SDS011;35233;55.686;37.848;2023-06-19T01:17:07;3.75;;;2.78;;
47784;SDS011;35233;55.686;37.848;2023-06-19T01:19:33;5.05;;;2.72;;
47784;SDS011;35233;55.686;37.848;2023-06-19T01:22:01;4.78;;;2.90;;
47784;SDS011;35233;55.686;37.848;2023-06-19T01:24:27;3.65;;;2.70;;
47784;SDS011;35233;55.686;37.848;2023-06-19T01:26:52;3.42;;;2.63;;
47784;SDS011;35233;55.686;37.848;2023-06-19T01:29:18;3.90;;;2.85;;
47784;SDS011;35233;55.686;37.848;2023-06-19T01:34:30;4.23;;;2.90;;
47784;SDS011;35233;55.686;37.848;2023-06-19T01:36:58;3.50;;;2.70;;
47784;SDS011;35233;55.686;37.848;2023-06-19T01:39:27;4.05;;;2.72;;
47784;SDS011;35233;55.686;37.848;2023-06-19T01:42:00;3.53;;;2.65;;
47784;SDS011;35233;55.686;37.848;2023-06-19T01:44:27;3.50;;;2.58;;
47784;SDS011;35233;55.686;37.848;2023-06-19T01:47:14;3.85;;;2.88;;
47784;SDS011;35233;55.686;37.848;2023-06-19T01:49:41;3.53;;;2.80;;
47784;SDS011;35233;55.686;37.848;2023-06-19T01:52:09;3.80;;;2.50;;
47784;SDS011;35233;55.686;37.848;2023-06-19T01:54:40;4.10;;;2.70;;
47784;SDS011;35233;55.686;37.848;2023-06-19T01:57:08;3.20;;;2.50;;
47784;SDS011;35233;55.686;37.848;2023-06-19T01:59:37;2.72;;;2.20;;
47784;SDS011;35233;55.686;37.848;2023-06-19T02:02:14;3.53;;;2.50;;
47784;SDS011;35233;55.686;37.848;2023-06-19T02:04:49;3.58;;;2.67;;
47784;SDS011;35233;55.686;37.848;2023-06-19T02:07:19;3.00;;;2.38;;
47784;SDS011;35233;55.686;37.848;2023-06-19T02:09:45;3.25;;;2.40;;
47784;SDS011;35233;55.686;37.848;2023-06-19T02:12:10;3.50;;;2.40;;
47784;SDS011;35233;55.686;37.848;2023-06-19T02:14:47;3.50;;;2.40;;
47784;SDS011;35233;55.686;37.848;2023-06-19T02:17:15;3.33;;;2.50;;
47784;SDS011;35233;55.686;37.848;2023-06-19T02:19:48;3.53;;;2.55;;
47784;SDS011;35233;55.686;37.848;2023-06-19T02:22:30;3.03;;;2.40;;
47784;SDS011;35233;55.686;37.848;2023-06-19T02:25:03;3.35;;;2.53;;
47784;SDS011;35233;55.686;37.848;2023-06-19T02:27:34;4.03;;;2.63;;
47784;SDS011;35233;55.686;37.848;2023-06-19T02:30:15;3.35;;;2.30;;
47784;SDS011;35233;55.686;37.848;2023-06-19T02:32:45;3.15;;;2.30;;
47784;SDS011;35233;55.686;37.848;2023-06-19T02:35:14;3.30;;;2.30;;
47784;SDS011;35233;55.686;37.848;2023-06-19T02:37:43;3.38;;;2.30;;
47784;SDS011;35233;55.686;37.848;2023-06-19T02:40:15;2.83;;;2.30;;
47784;SDS011;35233;55.686;37.848;2023-06-19T02:42:43;3.38;;;2.50;;
47784;SDS011;35233;55.686;37.848;2023-06-19T02:45:11;3.17;;;2.42;;
47784;SDS011;35233;55.686;37.848;2023-06-19T02:47:36;3.00;;;2.20;;
47784;SDS011;35233;55.686;37.848;2023-06-19T02:50:02;2.92;;;2.30;;
47784;SDS011;35233;55.686;37.848;2023-06-19T02:52:29;2.95;;;2.28;;
47784;SDS011;35233;55.686;37.848;2023-06-19T02:54:57;3.67;;;2.50;;
47784;SDS011;35233;55.686;37.848;2023-06-19T02:57:34;2.95;;;2.30;;
47784;SDS011;35233;55.686;37.848;2023-06-19T03:00:06;3.42;;;2.40;;
47784;SDS011;35233;55.686;37.848;2023-06-19T03:02:34;3.28;;;2.30;;
47784;SDS011;35233;55.686;37.848;2023-06-19T03:04:59;3.50;;;2.28;;
47784;SDS011;35233;55.686;37.848;2023-06-19T03:07:28;3.28;;;2.22;;
47784;SDS011;35233;55.686;37.848;2023-06-19T03:09:57;3.17;;;2.22;;
47784;SDS011;35233;55.686;37.848;2023-06-19T03:12:22;2.83;;;2.10;;
47784;SDS011;35233;55.686;37.848;2023-06-19T03:14:48;3.03;;;2.28;;
47784;SDS011;35233;55.686;37.848;2023-06-19T03:17:13;3.15;;;2.30;;
47784;SDS011;35233;55.686;37.848;2023-06-19T03:19:39;3.22;;;2.55;;
47784;SDS011;35233;55.686;37.848;2023-06-19T03:22:13;2.70;;;2.33;;
47784;SDS011;35233;55.686;37.848;2023-06-19T03:24:42;3.00;;;2.22;;
47784;SDS011;35233;55.686;37.848;2023-06-19T03:27:08;2.85;;;2.22;;
47784;SDS011;35233;55.686;37.848;2023-06-19T03:29:36;2.80;;;2.20;;
47784;SDS011;35233;55.686;37.848;2023-06-19T03:32:07;3.10;;;2.20;;
47784;SDS011;35233;55.686;37.848;2023-06-19T03:34:33;2.88;;;2.30;;
47784;SDS011;35233;55.686;37.848;2023-06-19T03:36:59;2.70;;;2.00;;
47784;SDS011;35233;55.686;37.848;2023-06-19T03:39:24;3.08;;;2.10;;
47784;SDS011;35233;55.686;37.848;2023-06-19T03:41:58;2.50;;;2.10;;
47784;SDS011;35233;55.686;37.848;2023-06-19T03:44:45;2.83;;;2.10;;
47784;SDS011;35233;55.686;37.848;2023-06-19T03:47:10;2.33;;;1.73;;
47784;SDS011;35233;55.686;37.848;2023-06-19T03:49:38;2.20;;;1.98;;
47784;SDS011;35233;55.686;37.848;2023-06-19T03:52:07;2.40;;;1.92;;
47784;SDS011;35233;55.686;37.848;2023-06-19T03:54:42;3.05;;;2.30;;
47784;SDS011;35233;55.686;37.848;2023-06-19T03:57:10;2.53;;;1.98;;
47784;SDS011;35233;55.686;37.848;2023-06-19T03:59:36;2.17;;;1.95;;
47784;SDS011;35233;55.686;37.848;2023-06-19T04:04:56;2.67;;;2.17;;
47784;SDS011;35233;55.686;37.848;2023-06-19T04:07:24;2.42;;;1.98;;
47784;SDS011;35233;55.686;37.848;2023-06-19T04:09:50;3.05;;;2.15;;
47784;SDS011;35233;55.686;37.848;2023-06-19T04:12:24;2.60;;;2.00;;
47784;SDS011;35233;55.686;37.848;2023-06-19T04:17:15;2.30;;;2.00;;
47784;SDS011;35233;55.686;37.848;2023-06-19T04:19:44;2.65;;;2.03;;
47784;SDS011;35233;55.686;37.848;2023-06-19T04:24:46;3.15;;;2.30;;
47784;SDS011;35233;55.686;37.848;2023-06-19T04:27:14;2.30;;;1.85;;
47784;SDS011;35233;55.686;37.848;2023-06-19T04:29:47;2.70;;;2.13;;
47784;SDS011;35233;55.686;37.848;2023-06-19T04:32:13;2.17;;;1.85;;
47784;SDS011;35233;55.686;37.848;2023-06-19T04:34:44;2.20;;;1.70;;
47784;SDS011;35233;55.686;37.848;2023-06-19T04:37:11;2.80;;;2.08;;
47784;SDS011;35233;55.686;37.848;2023-06-19T04:39:37;2.50;;;2.00;;
47784;SDS011;35233;55.686;37.848;2023-06-19T04:42:13;2.88;;;2.05;;
47784;SDS011;35233;55.686;37.848;2023-06-19T04:47:37;2.08;;;1.77;;
47784;SDS011;35233;55.686;37.848;2023-06-19T04:50:21;2.65;;;2.08;;
47784;SDS011;35233;55.686;37.848;2023-06-19T04:52:47;2.20;;;1.80;;
47784;SDS011;35233;55.686;37.848;2023-06-19T04:55:15;2.70;;;2.05;;
47784;SDS011;35233;55.686;37.848;2023-06-19T04:57:56;2.70;;;1.98;;
47784;SDS011;35233;55.686;37.848;2023-06-19T05:00:47;2.83;;;1.98;;
47784;SDS011;35233;55.686;37.848;2023-06-19T05:03:19;2.20;;;1.90;;
47784;SDS011;35233;55.686;37.848;2023-06-19T05:06:06;2.42;;;1.85;;
47784;SDS011;35233;55.686;37.848;2023-06-19T05:08:50;2.10;;;1.90;;
47784;SDS011;35233;55.686;37.848;2023-06-19T05:11:24;2.38;;;1.98;;
47784;SDS011;35233;55.686;37.848;2023-06-19T05:14:08;2.15;;;1.70;;
47784;SDS011;35233;55.686;37.848;2023-06-19T05:17:00;2.10;;;1.70;;
47784;SDS011;35233;55.686;37.848;2023-06-19T05:22:34;2.17;;;1.90;;
47784;SDS011;35233;55.686;37.848;2023-06-19T05:25:01;1.98;;;1.77;;
47784;SDS011;35233;55.686;37.848;2023-06-19T05:27:27;2.42;;;1.92;;
47784;SDS011;35233;55.686;37.848;2023-06-19T05:30:12;1.90;;;1.70;;
47784;SDS011;35233;55.686;37.848;2023-06-19T05:32:38;2.65;;;1.92;;
47784;SDS011;35233;55.686;37.848;2023-06-19T05:35:03;2.35;;;1.65;;
47784;SDS011;35233;55.686;37.848;2023-06-19T05:37:35;3.53;;;1.73;;
47784;SDS011;35233;55.686;37.848;2023-06-19T05:40:01;2.63;;;1.90;;
47784;SDS011;35233;55.686;37.848;2023-06-19T05:42:26;1.92;;;1.70;;
47784;SDS011;35233;55.686;37.848;2023-06-19T05:44:52;2.35;;;1.50;;
47784;SDS011;35233;55.686;37.848;2023-06-19T05:47:17;2.17;;;1.73;;
47784;SDS011;35233;55.686;37.848;2023-06-19T05:49:45;2.50;;;1.88;;
47784;SDS011;35233;55.686;37.848;2023-06-19T05:52:12;2.47;;;1.92;;
47784;SDS011;35233;55.686;37.848;2023-06-19T05:54:37;2.50;;;1.80;;
47784;SDS011;35233;55.686;37.848;2023-06-19T05:57:03;2.03;;;1.83;;
47784;SDS011;35233;55.686;37.848;2023-06-19T05:59:28;2.42;;;1.73;;
47784;SDS011;35233;55.686;37.848;2023-06-19T06:02:13;2.25;;;1.70;;
47784;SDS011;35233;55.686;37.848;2023-06-19T06:04:40;2.40;;;1.77;;
47784;SDS011;35233;55.686;37.848;2023-06-19T06:07:05;2.08;;;1.70;;
47784;SDS011;35233;55.686;37.848;2023-06-19T06:09:31;2.25;;;1.70;;
47784;SDS011;35233;55.686;37.848;2023-06-19T06:12:15;2.13;;;1.80;;
47784;SDS011;35233;55.686;37.848;2023-06-19T06:14:41;2.25;;;1.60;;
47784;SDS011;35233;55.686;37.848;2023-06-19T06:17:06;1.95;;;1.63;;
47784;SDS011;35233;55.686;37.848;2023-06-19T06:19:35;1.75;;;1.45;;
47784;SDS011;35233;55.686;37.848;2023-06-19T06:22:38;1.77;;;1.65;;
47784;SDS011;35233;55.686;37.848;2023-06-19T06:25:10;1.92;;;1.70;;
47784;SDS011;35233;55.686;37.848;2023-06-19T06:27:36;1.60;;;1.50;;
47784;SDS011;35233;55.686;37.848;2023-06-19T06:30:03;1.65;;;1.50;;
47784;SDS011;35233;55.686;37.848;2023-06-19T06:35:57;2.28;;;1.83;;
47784;SDS011;35233;55.686;37.848;2023-06-19T06:38:27;2.03;;;1.75;;
47784;SDS011;35233;55.686;37.848;2023-06-19T06:41:03;2.42;;;1.90;;
47784;SDS011;35233;55.686;37.848;2023-06-19T06:43:31;1.80;;;1.60;;
47784;SDS011;35233;55.686;37.848;2023-06-19T06:45:57;3.08;;;1.90;;
47784;SDS011;35233;55.686;37.848;2023-06-19T06:48:23;2.05;;;1.70;;
47784;SDS011;35233;55.686;37.848;2023-06-19T06:50:48;1.83;;;1.55;;
47784;SDS011;35233;55.686;37.848;2023-06-19T06:53:14;2.10;;;1.73;;
47784;SDS011;35233;55.686;37.848;2023-06-19T06:55:39;2.72;;;1.85;;
47784;SDS011;35233;55.686;37.848;2023-06-19T06:58:11;1.92;;;1.65;;
47784;SDS011;35233;55.686;37.848;2023-06-19T07:00:55;1.88;;;1.60;;
47784;SDS011;35233;55.686;37.848;2023-06-19T07:03:42;2.10;;;1.65;;
47784;SDS011;35233;55.686;37.848;2023-06-19T07:06:08;2.25;;;1.75;;
47784;SDS011;35233;55.686;37.848;2023-06-19T07:08:33;2.97;;;1.42;;
47784;SDS011;35233;55.686;37.848;2023-06-19T07:10:59;2.08;;;1.75;;
47784;SDS011;35233;55.686;37.848;2023-06-19T07:13:27;1.80;;;1.50;;
47784;SDS011;35233;55.686;37.848;2023-06-19T07:15:52;1.77;;;1.60;;
47784;SDS011;35233;55.686;37.848;2023-06-19T07:18:20;2.10;;;1.60;;
47784;SDS011;35233;55.686;37.848;2023-06-19T07:20:56;2.88;;;1.48;;
47784;SDS011;35233;55.686;37.848;2023-06-19T07:23:22;1.90;;;1.70;;
47784;SDS011;35233;55.686;37.848;2023-06-19T07:25:47;1.90;;;1.70;;
47784;SDS011;35233;55.686;37.848;2023-06-19T07:28:13;2.08;;;1.70;;
47784;SDS011;35233;55.686;37.848;2023-06-19T07:30:39;1.85;;;1.60;;
47784;SDS011;35233;55.686;37.848;2023-06-19T07:33:04;2.03;;;1.52;;
47784;SDS011;35233;55.686;37.848;2023-06-19T07:35:30;1.70;;;1.60;;
47784;SDS011;35233;55.686;37.848;2023-06-19T07:37:56;3.65;;;1.50;;
47784;SDS011;35233;55.686;37.848;2023-06-19T07:40:21;1.80;;;1.40;;
47784;SDS011;35233;55.686;37.848;2023-06-19T07:42:52;2.45;;;1.70;;
47784;SDS011;35233;55.686;37.848;2023-06-19T07:45:43;1.85;;;1.60;;
47784;SDS011;35233;55.686;37.848;2023-06-19T07:48:12;2.08;;;1.70;;
47784;SDS011;35233;55.686;37.848;2023-06-19T07:53:32;2.63;;;1.80;;
47784;SDS011;35233;55.686;37.848;2023-06-19T07:56:18;2.22;;;1.90;;
47784;SDS011;35233;55.686;37.848;2023-06-19T07:58:43;1.88;;;1.60;;
47784;SDS011;35233;55.686;37.848;2023-06-19T08:01:12;1.58;;;1.48;;
47784;SDS011;35233;55.686;37.848;2023-06-19T08:03:37;2.50;;;1.88;;
47784;SDS011;35233;55.686;37.848;2023-06-19T08:06:03;1.85;;;1.60;;
47784;SDS011;35233;55.686;37.848;2023-06-19T08:08:31;3.38;;;1.80;;
47784;SDS011;35233;55.686;37.848;2023-06-19T08:14:23;1.60;;;1.50;;
47784;SDS011;35233;55.686;37.848;2023-06-19T08:16:48;1.95;;;1.60;;
47784;SDS011;35233;55.686;37.848;2023-06-19T08:19:17;1.90;;;1.58;;
47784;SDS011;35233;55.686;37.848;2023-06-19T08:21:42;2.33;;;1.52;;
47784;SDS011;35233;55.686;37.848;2023-06-19T08:24:11;1.45;;;1.35;;
47784;SDS011;35233;55.686;37.848;2023-06-19T08:29:10;1.70;;;1.60;;
47784;SDS011;35233;55.686;37.848;2023-06-19T08:31:39;1.77;;;1.60;;
47784;SDS011;35233;55.686;37.848;2023-06-19T08:34:26;1.55;;;1.45;;
47784;SDS011;35233;55.686;37.848;2023-06-19T08:36:58;1.80;;;1.60;;
47784;SDS011;35233;55.686;37.848;2023-06-19T08:44:53;1.48;;;1.30;;
47784;SDS011;35233;55.686;37.848;2023-06-19T08:50:25;2.13;;;1.67;;
47784;SDS011;35233;55.686;37.848;2023-06-19T08:53:21;1.38;;;1.27;;
47784;SDS011;35233;55.686;37.848;2023-06-19T08:55:48;1.60;;;1.50;;
47784;SDS011;35233;55.686;37.848;2023-06-19T08:58:32;1.65;;;1.45;;
47784;SDS011;35233;55.686;37.848;2023-06-19T09:00:58;2.13;;;1.73;;
47784;SDS011;35233;55.686;37.848;2023-06-19T09:03:28;2.53;;;1.55;;
47784;SDS011;35233;55.686;37.848;2023-06-19T09:05:54;2.75;;;1.42;;
47784;SDS011;35233;55.686;37.848;2023-06-19T09:08:20;1.85;;;1.55;;
47784;SDS011;35233;55.686;37.848;2023-06-19T09:10:56;2.20;;;1.58;;
47784;SDS011;35233;55.686;37.848;2023-06-19T09:13:25;2.10;;;1.67;;
47784;SDS011;35233;55.686;37.848;2023-06-19T09:16:10;1.83;;;1.48;;
47784;SDS011;35233;55.686;37.848;2023-06-19T09:18:42;1.50;;;1.40;;
47784;SDS011;35233;55.686;37.848;2023-06-19T09:21:15;2.70;;;2.03;;
47784;SDS011;35233;55.686;37.848;2023-06-19T09:23:48;1.42;;;1.30;;
47784;SDS011;35233;55.686;37.848;2023-06-19T09:29:52;1.90;;;1.50;;
47784;SDS011;35233;55.686;37.848;2023-06-19T09:32:21;2.15;;;1.50;;
47784;SDS011;35233;55.686;37.848;2023-06-19T09:35:09;2.25;;;1.55;;
47784;SDS011;35233;55.686;37.848;2023-06-19T09:37:38;1.65;;;1.50;;
47784;SDS011;35233;55.686;37.848;2023-06-19T09:40:05;2.47;;;1.80;;
47784;SDS011;35233;55.686;37.848;2023-06-19T09:42:37;1.92;;;1.67;;
47784;SDS011;35233;55.686;37.848;2023-06-19T09:45:21;1.98;;;1.30;;
47784;SDS011;35233;55.686;37.848;2023-06-19T09:47:48;2.20;;;1.70;;
47784;SDS011;35233;55.686;37.848;2023-06-19T09:50:18;1.70;;;1.60;;
47784;SDS011;35233;55.686;37.848;2023-06-19T09:52:47;2.20;;;1.30;;
47784;SDS011;35233;55.686;37.848;2023-06-19T09:55:16;2.58;;;1.65;;
47784;SDS011;35233;55.686;37.848;2023-06-19T09:57:44;2.63;;;1.80;;
47784;SDS011;35233;55.686;37.848;2023-06-19T10:00:10;2.45;;;1.70;;
47784;SDS011;35233;55.686;37.848;2023-06-19T10:02:39;2.42;;;1.70;;
47784;SDS011;35233;55.686;37.848;2023-06-19T10:05:06;2.05;;;1.67;;
47784;SDS011;35233;55.686;37.848;2023-06-19T10:07:37;2.13;;;1.70;;
47784;SDS011;35233;55.686;37.848;2023-06-19T10:13:13;1.50;;;1.40;;
47784;SDS011;35233;55.686;37.848;2023-06-19T10:15:41;1.80;;;1.55;;
47784;SDS011;35233;55.686;37.848;2023-06-19T10:18:26;3.00;;;1.75;;
47784;SDS011;35233;55.686;37.848;2023-06-19T10:20:53;1.98;;;1.63;;
47784;SDS011;35233;55.686;37.848;2023-06-19T10:23:20;1.50;;;1.40;;
47784;SDS011;35233;55.686;37.848;2023-06-19T10:26:05;1.80;;;1.58;;
47784;SDS011;35233;55.686;37.848;2023-06-19T10:31:15;1.67;;;1.58;;
47784;SDS011;35233;55.686;37.848;2023-06-19T10:33:59;1.60;;;1.50;;
47784;SDS011;35233;55.686;37.848;2023-06-19T10:36:25;1.83;;;1.40;;
47784;SDS011;35233;55.686;37.848;2023-06-19T10:41:35;1.73;;;1.40;;
47784;SDS011;35233;55.686;37.848;2023-06-19T10:44:06;1.60;;;1.50;;
47784;SDS011;35233;55.686;37.848;2023-06-19T10:46:37;1.52;;;1.38;;
47784;SDS011;35233;55.686;37.848;2023-06-19T10:49:05;1.50;;;1.33;;
47784;SDS011;35233;55.686;37.848;2023-06-19T10:51:38;1.63;;;1.52;;
47784;SDS011;35233;55.686;37.848;2023-06-19T10:54:06;2.03;;;1.40;;
47784;SDS011;35233;55.686;37.848;2023-06-19T10:56:31;2.10;;;1.60;;
47784;SDS011;35233;55.686;37.848;2023-06-19T10:58:58;1.40;;;1.30;;
47784;SDS011;35233;55.686;37.848;2023-06-19T11:01:38;1.60;;;1.50;;
47784;SDS011;35233;55.686;37.848;2023-06-19T11:04:06;1.20;;;1.10;;
47784;SDS011;35233;55.686;37.848;2023-06-19T11:09:17;1.40;;;1.30;;
47784;SDS011;35233;55.686;37.848;2023-06-19T11:11:47;1.73;;;1.48;;
47784;SDS011;35233;55.686;37.848;2023-06-19T11:14:32;1.42;;;1.33;;
47784;SDS011;35233;55.686;37.848;2023-06-19T11:16:57;2.03;;;1.45;;
47784;SDS011;35233;55.686;37.848;2023-06-19T11:19:23;1.95;;;1.55;;
47784;SDS011;35233;55.686;37.848;2023-06-19T11:21:54;2.72;;;1.70;;
47784;SDS011;35233;55.686;37.848;2023-06-19T11:24:22;1.90;;;1.50;;
47784;SDS011;35233;55.686;37.848;2023-06-19T11:27:06;2.10;;;1.73;;
47784;SDS011;35233;55.686;37.848;2023-06-19T11:32:31;1.48;;;1.38;;
47784;SDS011;35233;55.686;37.848;2023-06-19T11:35:17;1.85;;;1.27;;
47784;SDS011;35233;55.686;37.848;2023-06-19T11:37:43;1.85;;;1.60;;
47784;SDS011;35233;55.686;37.848;2023-06-19T11:40:12;2.38;;;1.50;;
47784;SDS011;35233;55.686;37.848;2023-06-19T11:42:46;2.25;;;1.58;;
47784;SDS011;35233;55.686;37.848;2023-06-19T11:45:13;1.67;;;1.58;;
47784;SDS011;35233;55.686;37.848;2023-06-19T11:47:39;1.65;;;1.40;;
47784;SDS011;35233;55.686;37.848;2023-06-19T11:50:05;1.73;;;1.45;;
47784;SDS011;35233;55.686;37.848;2023-06-19T11:52:31;1.70;;;1.60;;
47784;SDS011;35233;55.686;37.848;2023-06-19T11:55:18;1.90;;;1.40;;
47784;SDS011;35233;55.686;37.848;2023-06-19T11:57:47;2.20;;;1.80;;
47784;SDS011;35233;55.686;37.848;2023-06-19T12:00:13;1.65;;;1.50;;
47784;SDS011;35233;55.686;37.848;2023-06-19T12:02:43;1.83;;;1.48;;
47784;SDS011;35233;55.686;37.848;2023-06-19T12:07:56;2.15;;;1.50;;
47784;SDS011;35233;55.686;37.848;2023-06-19T12:10:40;1.90;;;1.55;;
47784;SDS011;35233;55.686;37.848;2023-06-19T12:13:08;1.45;;;1.30;;
47784;SDS011;35233;55.686;37.848;2023-06-19T12:16:11;2.00;;;1.50;;
47784;SDS011;35233;55.686;37.848;2023-06-19T12:18:40;1.55;;;1.42;;
47784;SDS011;35233;55.686;37.848;2023-06-19T12:21:06;1.95;;;1.50;;
47784;SDS011;35233;55.686;37.848;2023-06-19T12:26:15;1.40;;;1.30;;
47784;SDS011;35233;55.686;37.848;2023-06-19T12:29:03;1.80;;;1.65;;
47784;SDS011;35233;55.686;37.848;2023-06-19T12:31:29;1.65;;;1.50;;
47784;SDS011;35233;55.686;37.848;2023-06-19T12:33:55;1.90;;;1.55;;
47784;SDS011;35233;55.686;37.848;2023-06-19T12:36:20;1.58;;;1.40;;
47784;SDS011;35233;55.686;37.848;2023-06-19T12:39:04;1.67;;;1.52;;
47784;SDS011;35233;55.686;37.848;2023-06-19T12:41:48;2.30;;;1.70;;
47784;SDS011;35233;55.686;37.848;2023-06-19T12:44:14;1.52;;;1.42;;
47784;SDS011;35233;55.686;37.848;2023-06-19T12:46:41;1.42;;;1.30;;
47784;SDS011;35233;55.686;37.848;2023-06-19T12:49:28;2.42;;;1.65;;
47784;SDS011;35233;55.686;37.848;2023-06-19T12:52:12;2.10;;;1.67;;
47784;SDS011;35233;55.686;37.848;2023-06-19T12:54:37;1.33;;;1.20;;
47784;SDS011;35233;55.686;37.848;2023-06-19T12:57:07;1.92;;;1.50;;
47784;SDS011;35233;55.686;37.848;2023-06-19T12:59:32;1.63;;;1.38;;
47784;SDS011;35233;55.686;37.848;2023-06-19T13:04:42;2.15;;;1.73;;
47784;SDS011;35233;55.686;37.848;2023-06-19T13:07:08;1.67;;;1.25;;
47784;SDS011;35233;55.686;37.848;2023-06-19T13:09:34;1.70;;;1.60;;
47784;SDS011;35233;55.686;37.848;2023-06-19T13:17:51;1.63;;;1.33;;
47784;SDS011;35233;55.686;37.848;2023-06-19T13:20:17;2.03;;;1.20;;
47784;SDS011;35233;55.686;37.848;2023-06-19T13:23:03;1.77;;;1.10;;
47784;SDS011;35233;55.686;37.848;2023-06-19T13:25:29;1.13;;;1.02;;
47784;SDS011;35233;55.686;37.848;2023-06-19T13:27:54;1.75;;;1.20;;
47784;SDS011;35233;55.686;37.848;2023-06-19T13:30:20;1.33;;;1.10;;
47784;SDS011;35233;55.686;37.848;2023-06-19T13:32:48;1.35;;;1.25;;
47784;SDS011;35233;55.686;37.848;2023-06-19T13:35:35;2.22;;;1.33;;
47784;SDS011;35233;55.686;37.848;2023-06-19T13:38:08;2.35;;;1.63;;
47784;SDS011;35233;55.686;37.848;2023-06-19T13:40:36;1.30;;;1.20;;
47784;SDS011;35233;55.686;37.848;2023-06-19T13:43:02;1.65;;;1.30;;
47784;SDS011;35233;55.686;37.848;2023-06-19T13:45:28;1.25;;;1.15;;
47784;SDS011;35233;55.686;37.848;2023-06-19T13:47:55;1.08;;;1.00;;
47784;SDS011;35233;55.686;37.848;2023-06-19T13:50:22;1.85;;;1.38;;
47784;SDS011;35233;55.686;37.848;2023-06-19T13:52:48;1.10;;;1.05;;
47784;SDS011;35233;55.686;37.848;2023-06-19T13:55:14;1.20;;;1.10;;
47784;SDS011;35233;55.686;37.848;2023-06-19T13:57:41;1.30;;;1.10;;
47784;SDS011;35233;55.686;37.848;2023-06-19T14:00:13;1.30;;;1.20;;
47784;SDS011;35233;55.686;37.848;2023-06-19T14:02:39;1.80;;;1.38;;
47784;SDS011;35233;55.686;37.848;2023-06-19T14:05:06;1.65;;;1.27;;
47784;SDS011;35233;55.686;37.848;2023-06-19T14:07:34;1.30;;;1.20;;
47784;SDS011;35233;55.686;37.848;2023-06-19T14:10:03;1.55;;;1.25;;
47784;SDS011;35233;55.686;37.848;2023-06-19T14:12:30;1.30;;;1.20;;
47784;SDS011;35233;55.686;37.848;2023-06-19T14:14:55;1.25;;;1.15;;
47784;SDS011;35233;55.686;37.848;2023-06-19T14:17:21;1.20;;;1.10;;
47784;SDS011;35233;55.686;37.848;2023-06-19T14:19:54;1.20;;;1.10;;
47784;SDS011;35233;55.686;37.848;2023-06-19T14:22:22;1.48;;;1.33;;
47784;SDS011;35233;55.686;37.848;2023-06-19T14:25:06;1.35;;;1.25;;
47784;SDS011;35233;55.686;37.848;2023-06-19T14:27:32;1.10;;;1.00;;
47784;SDS011;35233;55.686;37.848;2023-06-19T14:30:00;1.42;;;1.33;;
47784;SDS011;35233;55.686;37.848;2023-06-19T14:32:27;1.13;;;1.02;;
47784;SDS011;35233;55.686;37.848;2023-06-19T14:34:53;1.17;;;1.10;;
47784;SDS011;35233;55.686;37.848;2023-06-19T14:45:50;1.17;;;1.08;;
47784;SDS011;35233;55.686;37.848;2023-06-19T14:48:18;1.27;;;1.17;;
47784;SDS011;35233;55.686;37.848;2023-06-19T14:50:49;0.82;;;0.82;;
47784;SDS011;35233;55.686;37.848;2023-06-19T14:55:59;1.45;;;1.27;;
47784;SDS011;35233;55.686;37.848;2023-06-19T14:58:46;1.48;;;1.30;;
47784;SDS011;35233;55.686;37.848;2023-06-19T15:06:40;1.38;;;1.27;;
47784;SDS011;35233;55.686;37.848;2023-06-19T15:09:05;1.67;;;1.33;;
47784;SDS011;35233;55.686;37.848;2023-06-19T15:11:31;1.48;;;1.10;;
47784;SDS011;35233;55.686;37.848;2023-06-19T15:13:57;1.20;;;1.10;;
47784;SDS011;35233;55.686;37.848;2023-06-19T15:16:22;1.42;;;1.33;;
47784;SDS011;35233;55.686;37.848;2023-06-19T15:18:50;1.30;;;1.15;;
47784;SDS011;35233;55.686;37.848;2023-06-19T15:21:34;0.98;;;0.88;;
47784;SDS011;35233;55.686;37.848;2023-06-19T15:24:00;1.13;;;1.02;;
47784;SDS011;35233;55.686;37.848;2023-06-19T15:26:25;1.30;;;1.20;;
47784;SDS011;35233;55.686;37.848;2023-06-19T15:28:51;1.45;;;1.30;;
47784;SDS011;35233;55.686;37.848;2023-06-19T15:31:35;1.23;;;1.08;;
47784;SDS011;35233;55.686;37.848;2023-06-19T15:34:01;1.90;;;1.40;;
47784;SDS011;35233;55.686;37.848;2023-06-19T15:39:10;1.40;;;1.30;;
47784;SDS011;35233;55.686;37.848;2023-06-19T15:41:36;2.03;;;1.33;;
47784;SDS011;35233;55.686;37.848;2023-06-19T15:44:01;0.95;;;0.93;;
47784;SDS011;35233;55.686;37.848;2023-06-19T15:46:27;1.27;;;1.17;;
47784;SDS011;35233;55.686;37.848;2023-06-19T15:48:52;1.42;;;1.25;;
47784;SDS011;35233;55.686;37.848;2023-06-19T15:51:18;2.17;;;1.35;;
47784;SDS011;35233;55.686;37.848;2023-06-19T15:53:43;1.20;;;1.10;;
47784;SDS011;35233;55.686;37.848;2023-06-19T15:58:53;1.48;;;1.05;;
47784;SDS011;35233;55.686;37.848;2023-06-19T16:04:02;1.10;;;1.00;;
47784;SDS011;35233;55.686;37.848;2023-06-19T16:06:28;0.95;;;0.95;;
47784;SDS011;35233;55.686;37.848;2023-06-19T16:08:54;1.38;;;1.23;;
47784;SDS011;35233;55.686;37.848;2023-06-19T16:11:22;1.55;;;1.20;;
47784;SDS011;35233;55.686;37.848;2023-06-19T16:16:51;1.48;;;1.38;;
47784;SDS011;35233;55.686;37.848;2023-06-19T16:22:38;1.50;;;1.30;;
47784;SDS011;35233;55.686;37.848;2023-06-19T16:25:03;1.83;;;1.25;;
47784;SDS011;35233;55.686;37.848;2023-06-19T16:27:29;2.03;;;1.60;;
47784;SDS011;35233;55.686;37.848;2023-06-19T16:32:39;1.08;;;0.98;;